sensor_id;sensor_type;location;lat;lon;timestamp;P1;durP1;ratioP1;P2;durP2;ratioP2
974;SDS011;6115;49.296;10.602;2023-11-21T00:02:58;69.67;;;13.10;;
974;SDS011;6115;49.296;10.602;2023-11-21T00:07:59;67.70;;;12.90;;
974;SDS011;6115;49.296;10.602;2023-11-21T00:12:59;68.67;;;12.73;;
974;SDS011;6115;49.296;10.602;2023-11-21T00:18:02;67.57;;;12.80;;
974;SDS011;6115;49.296;10.602;2023-11-21T00:23:02;68.53;;;14.10;;
974;SDS011;6115;49.296;10.602;2023-11-21T00:28:03;68.30;;;13.83;;
974;SDS011;6115;49.296;10.602;2023-11-21T00:33:04;68.00;;;13.63;;
974;SDS011;6115;49.296;10.602;2023-11-21T00:38:04;68.10;;;13.13;;
974;SDS011;6115;49.296;10.602;2023-11-21T00:43:05;67.80;;;13.10;;
974;SDS011;6115;49.296;10.602;2023-11-21T00:48:05;69.27;;;13.37;;
974;SDS011;6115;49.296;10.602;2023-11-21T00:53:08;68.17;;;13.20;;
974;SDS011;6115;49.296;10.602;2023-11-21T00:58:08;67.57;;;13.27;;
974;SDS011;6115;49.296;10.602;2023-11-21T01:03:10;67.77;;;13.20;;
974;SDS011;6115;49.296;10.602;2023-11-21T01:08:11;67.70;;;13.40;;
974;SDS011;6115;49.296;10.602;2023-11-21T01:13:12;68.30;;;13.93;;
974;SDS011;6115;49.296;10.602;2023-11-21T01:18:15;67.50;;;13.17;;
974;SDS011;6115;49.296;10.602;2023-11-21T01:23:15;68.17;;;13.87;;
974;SDS011;6115;49.296;10.602;2023-11-21T01:28:16;68.50;;;14.13;;
974;SDS011;6115;49.296;10.602;2023-11-21T01:33:16;68.43;;;13.80;;
974;SDS011;6115;49.296;10.602;2023-11-21T01:38:17;68.00;;;13.60;;
974;SDS011;6115;49.296;10.602;2023-11-21T01:43:17;68.00;;;13.27;;
974;SDS011;6115;49.296;10.602;2023-11-21T01:48:18;68.87;;;14.00;;
974;SDS011;6115;49.296;10.602;2023-11-21T01:53:19;68.67;;;13.67;;
974;SDS011;6115;49.296;10.602;2023-11-21T01:58:20;68.10;;;13.67;;
974;SDS011;6115;49.296;10.602;2023-11-21T02:03:21;68.67;;;14.27;;
974;SDS011;6115;49.296;10.602;2023-11-21T02:08:22;69.47;;;13.70;;
974;SDS011;6115;49.296;10.602;2023-11-21T02:13:22;67.80;;;13.53;;
974;SDS011;6115;49.296;10.602;2023-11-21T02:18:23;69.20;;;13.00;;
974;SDS011;6115;49.296;10.602;2023-11-21T02:23:23;68.07;;;13.83;;
974;SDS011;6115;49.296;10.602;2023-11-21T02:28:28;68.07;;;13.70;;
974;SDS011;6115;49.296;10.602;2023-11-21T02:33:29;68.03;;;13.37;;
974;SDS011;6115;49.296;10.602;2023-11-21T02:38:29;68.13;;;13.30;;
974;SDS011;6115;49.296;10.602;2023-11-21T02:43:30;68.10;;;13.90;;
974;SDS011;6115;49.296;10.602;2023-11-21T02:48:31;68.70;;;14.20;;
974;SDS011;6115;49.296;10.602;2023-11-21T02:53:31;67.77;;;13.40;;
974;SDS011;6115;49.296;10.602;2023-11-21T02:58:32;67.97;;;13.63;;
974;SDS011;6115;49.296;10.602;2023-11-21T03:03:32;67.87;;;13.27;;
974;SDS011;6115;49.296;10.602;2023-11-21T03:08:33;70.13;;;13.70;;
974;SDS011;6115;49.296;10.602;2023-11-21T03:13:33;67.90;;;13.67;;
974;SDS011;6115;49.296;10.602;2023-11-21T03:18:34;68.47;;;14.50;;
974;SDS011;6115;49.296;10.602;2023-11-21T03:23:35;68.10;;;13.20;;
974;SDS011;6115;49.296;10.602;2023-11-21T03:28:36;67.97;;;13.97;;
974;SDS011;6115;49.296;10.602;2023-11-21T03:33:36;68.37;;;13.73;;
974;SDS011;6115;49.296;10.602;2023-11-21T03:38:37;68.00;;;14.00;;
974;SDS011;6115;49.296;10.602;2023-11-21T03:43:37;69.30;;;14.80;;
974;SDS011;6115;49.296;10.602;2023-11-21T03:48:38;68.33;;;13.80;;
974;SDS011;6115;49.296;10.602;2023-11-21T03:53:39;68.40;;;13.43;;
974;SDS011;6115;49.296;10.602;2023-11-21T03:58:40;68.40;;;13.70;;
974;SDS011;6115;49.296;10.602;2023-11-21T04:03:40;69.00;;;13.50;;
974;SDS011;6115;49.296;10.602;2023-11-21T04:08:41;68.23;;;14.17;;
974;SDS011;6115;49.296;10.602;2023-11-21T04:13:41;67.70;;;13.60;;
974;SDS011;6115;49.296;10.602;2023-11-21T04:18:42;68.20;;;13.93;;
974;SDS011;6115;49.296;10.602;2023-11-21T04:23:43;68.50;;;14.50;;
974;SDS011;6115;49.296;10.602;2023-11-21T04:28:43;82.93;;;14.20;;
974;SDS011;6115;49.296;10.602;2023-11-21T04:33:44;67.93;;;13.70;;
974;SDS011;6115;49.296;10.602;2023-11-21T04:38:45;68.37;;;14.20;;
974;SDS011;6115;49.296;10.602;2023-11-21T04:43:45;67.90;;;13.70;;
974;SDS011;6115;49.296;10.602;2023-11-21T04:48:46;68.07;;;14.07;;
974;SDS011;6115;49.296;10.602;2023-11-21T04:53:47;67.97;;;14.17;;
974;SDS011;6115;49.296;10.602;2023-11-21T04:58:47;68.27;;;14.50;;
974;SDS011;6115;49.296;10.602;2023-11-21T05:03:48;68.00;;;13.73;;
974;SDS011;6115;49.296;10.602;2023-11-21T05:08:49;69.77;;;13.40;;
974;SDS011;6115;49.296;10.602;2023-11-21T05:13:49;67.97;;;13.90;;
974;SDS011;6115;49.296;10.602;2023-11-21T05:18:50;68.90;;;14.53;;
974;SDS011;6115;49.296;10.602;2023-11-21T05:23:51;68.17;;;13.80;;
974;SDS011;6115;49.296;10.602;2023-11-21T05:28:51;70.10;;;14.13;;
974;SDS011;6115;49.296;10.602;2023-11-21T05:33:52;68.60;;;14.13;;
974;SDS011;6115;49.296;10.602;2023-11-21T05:38:53;68.70;;;14.00;;
974;SDS011;6115;49.296;10.602;2023-11-21T05:43:53;68.50;;;14.27;;
974;SDS011;6115;49.296;10.602;2023-11-21T05:48:54;68.47;;;14.77;;
974;SDS011;6115;49.296;10.602;2023-11-21T05:53:54;68.07;;;14.00;;
974;SDS011;6115;49.296;10.602;2023-11-21T05:58:55;68.33;;;13.97;;
974;SDS011;6115;49.296;10.602;2023-11-21T06:03:55;70.40;;;14.03;;
974;SDS011;6115;49.296;10.602;2023-11-21T06:08:56;68.23;;;13.70;;
974;SDS011;6115;49.296;10.602;2023-11-21T06:13:57;68.70;;;14.60;;
974;SDS011;6115;49.296;10.602;2023-11-21T06:18:58;68.50;;;14.07;;
974;SDS011;6115;49.296;10.602;2023-11-21T06:23:58;68.67;;;14.30;;
974;SDS011;6115;49.296;10.602;2023-11-21T06:28:59;69.60;;;14.40;;
974;SDS011;6115;49.296;10.602;2023-11-21T06:34:00;69.10;;;14.40;;
974;SDS011;6115;49.296;10.602;2023-11-21T06:39:01;68.73;;;14.10;;
974;SDS011;6115;49.296;10.602;2023-11-21T06:44:02;68.90;;;14.43;;
974;SDS011;6115;49.296;10.602;2023-11-21T06:49:02;68.30;;;13.77;;
974;SDS011;6115;49.296;10.602;2023-11-21T06:54:03;67.97;;;13.77;;
974;SDS011;6115;49.296;10.602;2023-11-21T06:59:04;68.27;;;13.90;;
974;SDS011;6115;49.296;10.602;2023-11-21T07:04:05;68.67;;;14.23;;
974;SDS011;6115;49.296;10.602;2023-11-21T07:09:06;71.80;;;14.67;;
974;SDS011;6115;49.296;10.602;2023-11-21T07:14:08;68.17;;;13.77;;
974;SDS011;6115;49.296;10.602;2023-11-21T07:19:09;68.07;;;13.80;;
974;SDS011;6115;49.296;10.602;2023-11-21T07:24:09;67.90;;;13.80;;
974;SDS011;6115;49.296;10.602;2023-11-21T07:29:11;68.27;;;13.73;;
974;SDS011;6115;49.296;10.602;2023-11-21T07:34:13;68.27;;;13.70;;
974;SDS011;6115;49.296;10.602;2023-11-21T07:39:13;68.13;;;13.53;;
974;SDS011;6115;49.296;10.602;2023-11-21T07:44:16;68.00;;;13.67;;
974;SDS011;6115;49.296;10.602;2023-11-21T07:49:20;69.13;;;15.17;;
974;SDS011;6115;49.296;10.602;2023-11-21T07:54:21;67.80;;;14.10;;
974;SDS011;6115;49.296;10.602;2023-11-21T07:59:21;68.60;;;14.77;;
974;SDS011;6115;49.296;10.602;2023-11-21T08:04:22;68.47;;;15.03;;
974;SDS011;6115;49.296;10.602;2023-11-21T08:09:23;68.13;;;15.00;;
974;SDS011;6115;49.296;10.602;2023-11-21T08:14:23;68.90;;;16.37;;
974;SDS011;6115;49.296;10.602;2023-11-21T08:19:27;68.80;;;15.40;;
974;SDS011;6115;49.296;10.602;2023-11-21T08:24:27;69.17;;;16.53;;
974;SDS011;6115;49.296;10.602;2023-11-21T08:29:28;70.13;;;16.27;;
974;SDS011;6115;49.296;10.602;2023-11-21T08:34:29;67.90;;;15.40;;
974;SDS011;6115;49.296;10.602;2023-11-21T08:39:29;69.33;;;16.67;;
974;SDS011;6115;49.296;10.602;2023-11-21T08:44:30;70.07;;;16.33;;
974;SDS011;6115;49.296;10.602;2023-11-21T08:49:31;69.10;;;16.50;;
974;SDS011;6115;49.296;10.602;2023-11-21T08:54:32;68.57;;;15.97;;
974;SDS011;6115;49.296;10.602;2023-11-21T08:59:34;71.27;;;17.83;;
974;SDS011;6115;49.296;10.602;2023-11-21T09:04:34;69.37;;;16.60;;
974;SDS011;6115;49.296;10.602;2023-11-21T09:09:35;69.90;;;17.70;;
974;SDS011;6115;49.296;10.602;2023-11-21T09:14:35;70.57;;;18.77;;
974;SDS011;6115;49.296;10.602;2023-11-21T09:19:36;69.53;;;17.70;;
974;SDS011;6115;49.296;10.602;2023-11-21T09:24:37;70.13;;;19.27;;
974;SDS011;6115;49.296;10.602;2023-11-21T09:29:38;70.30;;;19.33;;
974;SDS011;6115;49.296;10.602;2023-11-21T09:34:38;72.07;;;20.50;;
974;SDS011;6115;49.296;10.602;2023-11-21T09:39:39;70.20;;;18.20;;
974;SDS011;6115;49.296;10.602;2023-11-21T09:44:44;69.67;;;17.77;;
974;SDS011;6115;49.296;10.602;2023-11-21T09:49:56;69.53;;;18.20;;
974;SDS011;6115;49.296;10.602;2023-11-21T09:55:01;68.80;;;16.93;;
974;SDS011;6115;49.296;10.602;2023-11-21T10:00:02;69.83;;;18.00;;
974;SDS011;6115;49.296;10.602;2023-11-21T10:05:05;69.00;;;16.77;;
974;SDS011;6115;49.296;10.602;2023-11-21T10:10:07;69.40;;;17.80;;
974;SDS011;6115;49.296;10.602;2023-11-21T10:15:09;78.20;;;18.10;;
974;SDS011;6115;49.296;10.602;2023-11-21T10:20:15;69.37;;;17.43;;
974;SDS011;6115;49.296;10.602;2023-11-21T10:25:16;68.87;;;16.67;;
974;SDS011;6115;49.296;10.602;2023-11-21T10:30:20;70.10;;;17.63;;
974;SDS011;6115;49.296;10.602;2023-11-21T10:35:20;69.27;;;17.60;;
974;SDS011;6115;49.296;10.602;2023-11-21T10:40:21;70.43;;;17.40;;
974;SDS011;6115;49.296;10.602;2023-11-21T10:45:22;68.20;;;15.60;;
974;SDS011;6115;49.296;10.602;2023-11-21T10:50:23;68.90;;;16.47;;
974;SDS011;6115;49.296;10.602;2023-11-21T10:55:25;68.80;;;16.03;;
974;SDS011;6115;49.296;10.602;2023-11-21T11:00:26;68.57;;;15.57;;
974;SDS011;6115;49.296;10.602;2023-11-21T11:05:30;69.47;;;16.90;;
974;SDS011;6115;49.296;10.602;2023-11-21T11:10:32;69.83;;;17.40;;
974;SDS011;6115;49.296;10.602;2023-11-21T11:15:32;71.30;;;16.37;;
974;SDS011;6115;49.296;10.602;2023-11-21T11:20:34;71.30;;;18.07;;
974;SDS011;6115;49.296;10.602;2023-11-21T11:36:33;70.77;;;17.63;;
974;SDS011;6115;49.296;10.602;2023-11-21T11:41:37;71.13;;;16.93;;
974;SDS011;6115;49.296;10.602;2023-11-21T11:46:40;69.40;;;17.03;;
974;SDS011;6115;49.296;10.602;2023-11-21T11:51:41;69.37;;;17.10;;
974;SDS011;6115;49.296;10.602;2023-11-21T11:56:42;69.17;;;16.43;;
974;SDS011;6115;49.296;10.602;2023-11-21T12:01:45;67.47;;;14.53;;
974;SDS011;6115;49.296;10.602;2023-11-21T12:06:46;67.37;;;14.33;;
974;SDS011;6115;49.296;10.602;2023-11-21T12:11:48;69.17;;;15.27;;
974;SDS011;6115;49.296;10.602;2023-11-21T12:16:49;69.00;;;14.63;;
974;SDS011;6115;49.296;10.602;2023-11-21T12:21:51;68.50;;;15.37;;
974;SDS011;6115;49.296;10.602;2023-11-21T12:26:52;68.23;;;14.70;;
974;SDS011;6115;49.296;10.602;2023-11-21T12:31:53;70.13;;;15.53;;
974;SDS011;6115;49.296;10.602;2023-11-21T12:36:53;69.40;;;15.10;;
974;SDS011;6115;49.296;10.602;2023-11-21T12:41:55;68.50;;;14.97;;
974;SDS011;6115;49.296;10.602;2023-11-21T12:46:56;67.20;;;13.60;;
974;SDS011;6115;49.296;10.602;2023-11-21T12:51:57;67.17;;;13.33;;
974;SDS011;6115;49.296;10.602;2023-11-21T12:56:59;67.93;;;13.83;;
974;SDS011;6115;49.296;10.602;2023-11-21T13:02:00;68.87;;;14.40;;
974;SDS011;6115;49.296;10.602;2023-11-21T13:07:05;69.17;;;15.13;;
974;SDS011;6115;49.296;10.602;2023-11-21T13:12:14;70.07;;;14.67;;
974;SDS011;6115;49.296;10.602;2023-11-21T13:17:18;68.07;;;13.67;;
974;SDS011;6115;49.296;10.602;2023-11-21T13:22:19;68.37;;;14.60;;
974;SDS011;6115;49.296;10.602;2023-11-21T13:27:20;68.80;;;14.87;;
974;SDS011;6115;49.296;10.602;2023-11-21T13:32:21;70.30;;;15.30;;
974;SDS011;6115;49.296;10.602;2023-11-21T13:37:22;68.43;;;15.07;;
974;SDS011;6115;49.296;10.602;2023-11-21T13:42:24;68.17;;;14.57;;
974;SDS011;6115;49.296;10.602;2023-11-21T13:47:28;69.47;;;15.17;;
974;SDS011;6115;49.296;10.602;2023-11-21T13:52:31;69.87;;;14.47;;
974;SDS011;6115;49.296;10.602;2023-11-21T13:57:33;70.67;;;15.37;;
974;SDS011;6115;49.296;10.602;2023-11-21T14:02:34;68.70;;;14.93;;
974;SDS011;6115;49.296;10.602;2023-11-21T14:07:39;69.40;;;14.73;;
974;SDS011;6115;49.296;10.602;2023-11-21T14:12:47;70.07;;;14.80;;
974;SDS011;6115;49.296;10.602;2023-11-21T14:17:48;68.40;;;14.20;;
974;SDS011;6115;49.296;10.602;2023-11-21T14:22:49;68.27;;;13.60;;
974;SDS011;6115;49.296;10.602;2023-11-21T14:27:50;69.20;;;13.93;;
974;SDS011;6115;49.296;10.602;2023-11-21T14:32:51;68.07;;;13.13;;
974;SDS011;6115;49.296;10.602;2023-11-21T14:37:52;67.70;;;13.57;;
974;SDS011;6115;49.296;10.602;2023-11-21T14:42:53;68.30;;;13.63;;
974;SDS011;6115;49.296;10.602;2023-11-21T14:47:54;68.20;;;13.50;;
974;SDS011;6115;49.296;10.602;2023-11-21T14:53:13;71.60;;;14.27;;
974;SDS011;6115;49.296;10.602;2023-11-21T14:58:14;70.27;;;15.00;;
974;SDS011;6115;49.296;10.602;2023-11-21T15:03:19;72.33;;;15.87;;
974;SDS011;6115;49.296;10.602;2023-11-21T15:08:32;74.07;;;16.40;;
974;SDS011;6115;49.296;10.602;2023-11-21T15:13:32;72.20;;;16.03;;
974;SDS011;6115;49.296;10.602;2023-11-21T15:18:33;73.27;;;16.40;;
974;SDS011;6115;49.296;10.602;2023-11-21T15:23:35;69.90;;;15.00;;
974;SDS011;6115;49.296;10.602;2023-11-21T15:28:36;70.67;;;14.70;;
974;SDS011;6115;49.296;10.602;2023-11-21T15:33:36;71.33;;;14.60;;
974;SDS011;6115;49.296;10.602;2023-11-21T15:38:37;69.37;;;14.30;;
974;SDS011;6115;49.296;10.602;2023-11-21T15:43:37;71.37;;;14.50;;
974;SDS011;6115;49.296;10.602;2023-11-21T15:48:38;71.23;;;15.63;;
974;SDS011;6115;49.296;10.602;2023-11-21T15:53:43;71.30;;;16.00;;
974;SDS011;6115;49.296;10.602;2023-11-21T15:58:44;73.73;;;15.07;;
974;SDS011;6115;49.296;10.602;2023-11-21T16:03:46;76.60;;;16.00;;
974;SDS011;6115;49.296;10.602;2023-11-21T16:08:48;71.57;;;15.00;;
974;SDS011;6115;49.296;10.602;2023-11-21T16:13:49;69.20;;;13.33;;
974;SDS011;6115;49.296;10.602;2023-11-21T16:18:49;69.77;;;13.07;;
974;SDS011;6115;49.296;10.602;2023-11-21T16:23:50;70.67;;;14.40;;
974;SDS011;6115;49.296;10.602;2023-11-21T16:28:51;76.50;;;16.00;;
974;SDS011;6115;49.296;10.602;2023-11-21T16:33:51;71.70;;;15.40;;
974;SDS011;6115;49.296;10.602;2023-11-21T16:38:53;68.67;;;14.07;;
974;SDS011;6115;49.296;10.602;2023-11-21T16:43:54;71.37;;;14.30;;
974;SDS011;6115;49.296;10.602;2023-11-21T16:48:54;72.17;;;15.70;;
974;SDS011;6115;49.296;10.602;2023-11-21T16:53:55;73.40;;;15.97;;
974;SDS011;6115;49.296;10.602;2023-11-21T16:58:55;71.80;;;13.80;;
974;SDS011;6115;49.296;10.602;2023-11-21T17:03:56;70.97;;;12.97;;
974;SDS011;6115;49.296;10.602;2023-11-21T17:09:00;69.83;;;13.07;;
974;SDS011;6115;49.296;10.602;2023-11-21T17:14:05;71.30;;;13.97;;
974;SDS011;6115;49.296;10.602;2023-11-21T17:19:06;71.53;;;13.77;;
974;SDS011;6115;49.296;10.602;2023-11-21T17:24:07;72.47;;;15.27;;
974;SDS011;6115;49.296;10.602;2023-11-21T17:29:09;72.70;;;15.73;;
974;SDS011;6115;49.296;10.602;2023-11-21T17:34:10;73.83;;;16.13;;
974;SDS011;6115;49.296;10.602;2023-11-21T17:39:11;71.30;;;14.87;;
974;SDS011;6115;49.296;10.602;2023-11-21T17:44:12;71.90;;;14.70;;
974;SDS011;6115;49.296;10.602;2023-11-21T17:49:14;70.33;;;14.00;;
974;SDS011;6115;49.296;10.602;2023-11-21T17:54:14;70.73;;;14.83;;
974;SDS011;6115;49.296;10.602;2023-11-21T17:59:15;71.00;;;14.67;;
974;SDS011;6115;49.296;10.602;2023-11-21T18:04:16;71.77;;;15.23;;
974;SDS011;6115;49.296;10.602;2023-11-21T18:09:17;72.50;;;13.67;;
974;SDS011;6115;49.296;10.602;2023-11-21T18:14:19;71.10;;;14.43;;
974;SDS011;6115;49.296;10.602;2023-11-21T18:19:19;69.50;;;13.73;;
974;SDS011;6115;49.296;10.602;2023-11-21T18:24:20;72.60;;;15.30;;
974;SDS011;6115;49.296;10.602;2023-11-21T18:29:21;71.87;;;14.53;;
974;SDS011;6115;49.296;10.602;2023-11-21T18:34:21;69.17;;;14.00;;
974;SDS011;6115;49.296;10.602;2023-11-21T18:39:23;70.87;;;15.13;;
974;SDS011;6115;49.296;10.602;2023-11-21T18:44:24;73.83;;;14.30;;
974;SDS011;6115;49.296;10.602;2023-11-21T18:49:25;71.70;;;15.17;;
974;SDS011;6115;49.296;10.602;2023-11-21T18:54:26;72.90;;;14.83;;
974;SDS011;6115;49.296;10.602;2023-11-21T18:59:26;70.93;;;14.53;;
974;SDS011;6115;49.296;10.602;2023-11-21T19:04:27;70.60;;;14.47;;
974;SDS011;6115;49.296;10.602;2023-11-21T19:09:28;70.93;;;13.70;;
974;SDS011;6115;49.296;10.602;2023-11-21T19:14:29;71.80;;;13.67;;
974;SDS011;6115;49.296;10.602;2023-11-21T19:19:30;71.70;;;14.50;;
974;SDS011;6115;49.296;10.602;2023-11-21T19:24:31;69.70;;;12.97;;
974;SDS011;6115;49.296;10.602;2023-11-21T19:29:32;69.90;;;14.20;;
974;SDS011;6115;49.296;10.602;2023-11-21T19:34:34;70.67;;;13.10;;
974;SDS011;6115;49.296;10.602;2023-11-21T19:39:35;74.53;;;13.97;;
974;SDS011;6115;49.296;10.602;2023-11-21T19:44:35;72.37;;;14.57;;
974;SDS011;6115;49.296;10.602;2023-11-21T19:49:36;70.70;;;14.67;;
974;SDS011;6115;49.296;10.602;2023-11-21T19:54:37;73.57;;;15.83;;
974;SDS011;6115;49.296;10.602;2023-11-21T19:59:38;69.27;;;13.10;;
974;SDS011;6115;49.296;10.602;2023-11-21T20:04:42;71.07;;;14.47;;
974;SDS011;6115;49.296;10.602;2023-11-21T20:09:43;69.97;;;14.63;;
974;SDS011;6115;49.296;10.602;2023-11-21T20:14:44;95.70;;;21.00;;
974;SDS011;6115;49.296;10.602;2023-11-21T20:19:48;80.70;;;19.30;;
974;SDS011;6115;49.296;10.602;2023-11-21T20:24:48;75.87;;;16.43;;
974;SDS011;6115;49.296;10.602;2023-11-21T20:29:49;70.40;;;13.70;;
974;SDS011;6115;49.296;10.602;2023-11-21T20:34:49;71.73;;;13.40;;
974;SDS011;6115;49.296;10.602;2023-11-21T20:39:50;68.87;;;12.13;;
974;SDS011;6115;49.296;10.602;2023-11-21T20:44:51;70.60;;;13.10;;
974;SDS011;6115;49.296;10.602;2023-11-21T20:49:53;68.27;;;12.07;;
974;SDS011;6115;49.296;10.602;2023-11-21T20:54:58;68.30;;;11.30;;
974;SDS011;6115;49.296;10.602;2023-11-21T20:59:59;67.67;;;11.80;;
974;SDS011;6115;49.296;10.602;2023-11-21T21:04:59;67.53;;;11.37;;
974;SDS011;6115;49.296;10.602;2023-11-21T21:10:00;67.77;;;11.90;;
974;SDS011;6115;49.296;10.602;2023-11-21T21:15:00;68.00;;;12.27;;
974;SDS011;6115;49.296;10.602;2023-11-21T21:20:01;68.30;;;12.93;;
974;SDS011;6115;49.296;10.602;2023-11-21T21:25:02;66.90;;;11.30;;
974;SDS011;6115;49.296;10.602;2023-11-21T21:30:03;68.40;;;11.90;;
974;SDS011;6115;49.296;10.602;2023-11-21T21:35:05;68.20;;;11.80;;
974;SDS011;6115;49.296;10.602;2023-11-21T21:40:06;67.57;;;12.20;;
974;SDS011;6115;49.296;10.602;2023-11-21T21:45:08;68.80;;;13.77;;
974;SDS011;6115;49.296;10.602;2023-11-21T21:50:09;68.60;;;12.53;;
974;SDS011;6115;49.296;10.602;2023-11-21T21:55:10;69.10;;;13.73;;
974;SDS011;6115;49.296;10.602;2023-11-21T22:00:14;69.40;;;13.33;;
974;SDS011;6115;49.296;10.602;2023-11-21T22:05:15;68.40;;;12.60;;
974;SDS011;6115;49.296;10.602;2023-11-21T22:10:15;67.87;;;12.70;;
974;SDS011;6115;49.296;10.602;2023-11-21T22:15:16;68.63;;;13.67;;
974;SDS011;6115;49.296;10.602;2023-11-21T22:20:17;72.93;;;14.03;;
974;SDS011;6115;49.296;10.602;2023-11-21T22:25:19;69.87;;;14.10;;
974;SDS011;6115;49.296;10.602;2023-11-21T22:30:20;70.50;;;14.67;;
974;SDS011;6115;49.296;10.602;2023-11-21T22:35:24;69.30;;;13.50;;
974;SDS011;6115;49.296;10.602;2023-11-21T22:40:25;68.47;;;13.27;;
974;SDS011;6115;49.296;10.602;2023-11-21T22:45:26;70.03;;;13.90;;
974;SDS011;6115;49.296;10.602;2023-11-21T22:50:27;69.30;;;13.80;;
974;SDS011;6115;49.296;10.602;2023-11-21T22:55:28;71.23;;;14.17;;
974;SDS011;6115;49.296;10.602;2023-11-21T23:00:28;67.83;;;12.87;;
974;SDS011;6115;49.296;10.602;2023-11-21T23:05:29;68.97;;;13.73;;
974;SDS011;6115;49.296;10.602;2023-11-21T23:10:30;68.60;;;12.60;;
974;SDS011;6115;49.296;10.602;2023-11-21T23:15:31;69.20;;;13.77;;
974;SDS011;6115;49.296;10.602;2023-11-21T23:20:31;68.37;;;13.53;;
974;SDS011;6115;49.296;10.602;2023-11-21T23:25:32;68.37;;;13.20;;
974;SDS011;6115;49.296;10.602;2023-11-21T23:30:32;71.10;;;13.73;;
974;SDS011;6115;49.296;10.602;2023-11-21T23:35:33;68.80;;;13.63;;
974;SDS011;6115;49.296;10.602;2023-11-21T23:40:35;73.07;;;13.77;;
974;SDS011;6115;49.296;10.602;2023-11-21T23:45:36;68.77;;;13.60;;
974;SDS011;6115;49.296;10.602;2023-11-21T23:50:36;69.70;;;14.57;;
974;SDS011;6115;49.296;10.602;2023-11-21T23:55:37;68.67;;;13.40;;
